METAR AND TAF INFORMATION
METAR FOR UWKD
ADDS - METARS form results

(1218 UTC 17 June 2019)
Data provider http://aviationweather.gov/metar/data/
 
METAR text: UWKD 171200Z 32007G12MPS CAVOK 25/07 Q1008 R29/70D NOSIG RMK QFE745/0994
Conditions at: UWKD (KAZAN , RU) observed 1200 UTC 17 June 2019
Temperature: 25.0°C (77°F)
Dewpoint: 7.0°C (45°F) [RH = 32%]
Pressure (altimeter): 29.76 inches Hg (1008.0 mb)
Winds: from the NW (320 degrees) at 16 MPH (14 knots; 7.2 m/s)
gusting to 26 MPH (23 knots; 11.8 m/s)
Visibility: 6 or more miles (10+ km)
Ceiling: ceiling and visibility are OK
Clouds: unknown
Weather: no significant weather observed at this time

METAR text: UWKD 171130Z 31009G14MPS CAVOK 24/07 Q1009 R29/70D NOSIG RMK QFE745/0994
Conditions at: UWKD (KAZAN , RU) observed 1130 UTC 17 June 2019
Temperature: 24.0°C (75°F)
Dewpoint: 7.0°C (45°F) [RH = 34%]
Pressure (altimeter): 29.79 inches Hg (1009.0 mb)
Winds: from the NW (310 degrees) at 20 MPH (17 knots; 8.7 m/s)
gusting to 31 MPH (27 knots; 13.9 m/s)
Visibility: 6 or more miles (10+ km)
Ceiling: ceiling and visibility are OK
Clouds: unknown
Weather: no significant weather observed at this time

Forecast for: AMD
Text: TAF AMD UWKD 171120Z 1711/1812 29005MPS 9999 SCT020 TX26/1712Z TN10/1801Z
Forecast period: 1100 UTC 17 June 2019 to 0400 UTC 18 June 2019
Forecast type: FROM: standard forecast or significant change
Winds: from the WNW (290 degrees) at 12 MPH (10 knots; 5.1 m/s)
Visibility: 6 or more miles 10+ km)
Ceiling: at least 12,000 feet AGL
Clouds: scattered clouds at 2000 feet AGL
Weather: no significant weather forecast for this period
Text: TEMPO 1711/1715 30008G15MPS -SHRA BKN030CB
Forecast period: 1100 to 1500 UTC 17 June 2019
Forecast type: TEMPORARY: The following changes expected for less than half the time period
Winds: from the WNW (300 degrees) at 18 MPH (16 knots; 8.2 m/s)
gusting to 33 MPH (29 knots; 14.9 m/s)
Visibility: missing
Ceiling: 3000 feet AGL
Clouds: broken clouds at 3000 feet AGL
Weather: -SHRA  (light rain showers)
Text: BECMG 1804/1806 VRB01MPS
Forecast period: 0400 to 1200 UTC 18 June 2019
Forecast type: BECOMING: Conditions expected to become as follows by 0600 UTC 18 June 2019
Winds: variable direction winds at 2 MPH (2 knots; 1.0 m/s)
Visibility: 6 or more miles 10+ km)
Ceiling: at least 12,000 feet AGL
Clouds: scattered clouds at 2000 feet AGL
Weather: no significant weather forecast for this period

 AIRPORT MAP

 RUNWAY INFORMATION

 AIRPORT FREQUENCIES
Type ATIS Name ATIS Frequency 126.8 MHZ
Type GND Name TAXIING Frequency 121.7 MHZ
Type RDR Name RADAR Frequency 119.4 MHZ
Type TWR Name TWR Frequency 120.3 MHZ

 AIRPORT NEAR NAVIGATION AIDS
Type NDB Name Kazan Frequency 475 KHZ
Type NDB Name Kazan Frequency 475 KHZ
Type NDB Name Kazan Frequency 292 KHZ
Type VOR-DME Name Kazan Frequency 112700 KHZ
Type NDB Name Kazan Frequency 292 KHZ



2018 Air Astana Virtual Airline